sensor_id;sensor_type;location;lat;lon;timestamp;P1;durP1;ratioP1;P2;durP2;ratioP2
31450;SDS011;18070;52.474;13.304;2023-12-14T00:00:26;26.45;;;18.95;;
31450;SDS011;18070;52.474;13.304;2023-12-14T00:02:52;27.00;;;19.80;;
31450;SDS011;18070;52.474;13.304;2023-12-14T00:05:17;27.08;;;19.58;;
31450;SDS011;18070;52.474;13.304;2023-12-14T00:07:43;30.30;;;19.25;;
31450;SDS011;18070;52.474;13.304;2023-12-14T00:10:08;26.30;;;18.77;;
31450;SDS011;18070;52.474;13.304;2023-12-14T00:12:34;30.25;;;20.40;;
31450;SDS011;18070;52.474;13.304;2023-12-14T00:15:00;26.55;;;19.75;;
31450;SDS011;18070;52.474;13.304;2023-12-14T00:17:26;29.58;;;20.45;;
31450;SDS011;18070;52.474;13.304;2023-12-14T00:19:52;30.08;;;21.40;;
31450;SDS011;18070;52.474;13.304;2023-12-14T00:22:18;26.27;;;19.05;;
31450;SDS011;18070;52.474;13.304;2023-12-14T00:24:44;33.08;;;22.88;;
31450;SDS011;18070;52.474;13.304;2023-12-14T00:27:09;33.50;;;22.25;;
31450;SDS011;18070;52.474;13.304;2023-12-14T00:29:35;29.48;;;20.35;;
31450;SDS011;18070;52.474;13.304;2023-12-14T00:32:00;28.02;;;21.23;;
31450;SDS011;18070;52.474;13.304;2023-12-14T00:34:26;32.45;;;21.38;;
31450;SDS011;18070;52.474;13.304;2023-12-14T00:36:51;27.48;;;20.15;;
31450;SDS011;18070;52.474;13.304;2023-12-14T00:39:17;32.30;;;22.17;;
31450;SDS011;18070;52.474;13.304;2023-12-14T00:41:43;33.80;;;21.13;;
31450;SDS011;18070;52.474;13.304;2023-12-14T00:44:08;29.92;;;21.08;;
31450;SDS011;18070;52.474;13.304;2023-12-14T00:46:34;31.38;;;20.35;;
31450;SDS011;18070;52.474;13.304;2023-12-14T00:48:59;28.55;;;20.10;;
31450;SDS011;18070;52.474;13.304;2023-12-14T00:51:27;27.00;;;20.25;;
31450;SDS011;18070;52.474;13.304;2023-12-14T00:53:52;31.52;;;20.20;;
31450;SDS011;18070;52.474;13.304;2023-12-14T00:56:18;30.77;;;20.42;;
31450;SDS011;18070;52.474;13.304;2023-12-14T00:58:44;27.85;;;20.33;;
31450;SDS011;18070;52.474;13.304;2023-12-14T01:01:09;27.45;;;20.50;;
31450;SDS011;18070;52.474;13.304;2023-12-14T01:03:37;31.98;;;20.15;;
31450;SDS011;18070;52.474;13.304;2023-12-14T01:06:03;31.02;;;21.83;;
31450;SDS011;18070;52.474;13.304;2023-12-14T01:08:29;26.67;;;21.33;;
31450;SDS011;18070;52.474;13.304;2023-12-14T01:10:54;27.30;;;20.55;;
31450;SDS011;18070;52.474;13.304;2023-12-14T01:13:20;27.55;;;19.75;;
31450;SDS011;18070;52.474;13.304;2023-12-14T01:15:46;33.67;;;21.92;;
31450;SDS011;18070;52.474;13.304;2023-12-14T01:18:13;31.42;;;21.23;;
31450;SDS011;18070;52.474;13.304;2023-12-14T01:20:38;30.23;;;20.85;;
31450;SDS011;18070;52.474;13.304;2023-12-14T01:23:04;29.33;;;22.02;;
31450;SDS011;18070;52.474;13.304;2023-12-14T01:25:30;30.02;;;19.85;;
31450;SDS011;18070;52.474;13.304;2023-12-14T01:27:55;28.92;;;20.30;;
31450;SDS011;18070;52.474;13.304;2023-12-14T01:30:21;25.88;;;18.52;;
31450;SDS011;18070;52.474;13.304;2023-12-14T01:32:46;25.70;;;19.90;;
31450;SDS011;18070;52.474;13.304;2023-12-14T01:35:12;31.35;;;20.63;;
31450;SDS011;18070;52.474;13.304;2023-12-14T01:37:38;27.60;;;19.05;;
31450;SDS011;18070;52.474;13.304;2023-12-14T01:40:03;24.90;;;18.15;;
31450;SDS011;18070;52.474;13.304;2023-12-14T01:42:31;21.20;;;16.33;;
31450;SDS011;18070;52.474;13.304;2023-12-14T01:44:56;26.02;;;20.25;;
31450;SDS011;18070;52.474;13.304;2023-12-14T01:47:22;27.25;;;20.83;;
31450;SDS011;18070;52.474;13.304;2023-12-14T01:49:47;26.42;;;19.60;;
31450;SDS011;18070;52.474;13.304;2023-12-14T01:52:13;24.83;;;18.17;;
31450;SDS011;18070;52.474;13.304;2023-12-14T01:54:39;28.33;;;18.50;;
31450;SDS011;18070;52.474;13.304;2023-12-14T01:57:04;27.80;;;17.38;;
31450;SDS011;18070;52.474;13.304;2023-12-14T01:59:30;21.23;;;16.38;;
31450;SDS011;18070;52.474;13.304;2023-12-14T02:01:56;23.90;;;16.80;;
31450;SDS011;18070;52.474;13.304;2023-12-14T02:04:23;21.58;;;17.38;;
31450;SDS011;18070;52.474;13.304;2023-12-14T02:06:49;20.05;;;16.85;;
31450;SDS011;18070;52.474;13.304;2023-12-14T02:09:17;22.27;;;17.20;;
31450;SDS011;18070;52.474;13.304;2023-12-14T02:11:43;20.58;;;16.30;;
31450;SDS011;18070;52.474;13.304;2023-12-14T02:14:09;17.67;;;15.70;;
31450;SDS011;18070;52.474;13.304;2023-12-14T02:16:36;17.20;;;15.27;;
31450;SDS011;18070;52.474;13.304;2023-12-14T02:19:03;18.92;;;16.88;;
31450;SDS011;18070;52.474;13.304;2023-12-14T02:21:29;18.13;;;16.27;;
31450;SDS011;18070;52.474;13.304;2023-12-14T02:23:56;17.80;;;16.02;;
31450;SDS011;18070;52.474;13.304;2023-12-14T02:26:22;17.95;;;15.80;;
31450;SDS011;18070;52.474;13.304;2023-12-14T02:28:50;18.38;;;16.52;;
31450;SDS011;18070;52.474;13.304;2023-12-14T02:31:18;16.23;;;14.52;;
31450;SDS011;18070;52.474;13.304;2023-12-14T02:33:45;19.65;;;17.30;;
31450;SDS011;18070;52.474;13.304;2023-12-14T02:36:12;18.15;;;16.05;;
31450;SDS011;18070;52.474;13.304;2023-12-14T02:38:37;18.45;;;16.50;;
31450;SDS011;18070;52.474;13.304;2023-12-14T02:41:03;20.88;;;17.95;;
31450;SDS011;18070;52.474;13.304;2023-12-14T02:43:31;18.80;;;16.85;;
31450;SDS011;18070;52.474;13.304;2023-12-14T02:45:58;26.02;;;18.20;;
31450;SDS011;18070;52.474;13.304;2023-12-14T02:48:27;23.27;;;17.50;;
31450;SDS011;18070;52.474;13.304;2023-12-14T02:50:54;22.58;;;18.30;;
31450;SDS011;18070;52.474;13.304;2023-12-14T02:53:20;21.52;;;18.27;;
31450;SDS011;18070;52.474;13.304;2023-12-14T02:55:45;21.15;;;17.17;;
31450;SDS011;18070;52.474;13.304;2023-12-14T02:58:11;21.83;;;16.67;;
31450;SDS011;18070;52.474;13.304;2023-12-14T03:00:37;19.65;;;16.65;;
31450;SDS011;18070;52.474;13.304;2023-12-14T03:03:03;19.15;;;17.08;;
31450;SDS011;18070;52.474;13.304;2023-12-14T03:05:29;22.40;;;16.60;;
31450;SDS011;18070;52.474;13.304;2023-12-14T03:07:54;23.67;;;18.05;;
31450;SDS011;18070;52.474;13.304;2023-12-14T03:10:21;24.80;;;17.90;;
31450;SDS011;18070;52.474;13.304;2023-12-14T03:12:46;24.50;;;17.27;;
31450;SDS011;18070;52.474;13.304;2023-12-14T03:15:12;22.38;;;17.08;;
31450;SDS011;18070;52.474;13.304;2023-12-14T03:17:42;21.45;;;16.65;;
31450;SDS011;18070;52.474;13.304;2023-12-14T03:20:08;26.15;;;20.00;;
31450;SDS011;18070;52.474;13.304;2023-12-14T03:22:35;24.02;;;17.38;;
31450;SDS011;18070;52.474;13.304;2023-12-14T03:25:03;25.15;;;18.67;;
31450;SDS011;18070;52.474;13.304;2023-12-14T03:27:29;23.45;;;17.98;;
31450;SDS011;18070;52.474;13.304;2023-12-14T03:29:55;27.50;;;18.27;;
31450;SDS011;18070;52.474;13.304;2023-12-14T03:32:21;23.90;;;17.48;;
31450;SDS011;18070;52.474;13.304;2023-12-14T03:34:47;27.35;;;18.08;;
31450;SDS011;18070;52.474;13.304;2023-12-14T03:37:13;24.13;;;17.45;;
31450;SDS011;18070;52.474;13.304;2023-12-14T03:39:39;25.17;;;17.58;;
31450;SDS011;18070;52.474;13.304;2023-12-14T03:42:05;21.25;;;16.27;;
31450;SDS011;18070;52.474;13.304;2023-12-14T03:44:31;23.27;;;17.45;;
31450;SDS011;18070;52.474;13.304;2023-12-14T03:46:57;24.73;;;16.75;;
31450;SDS011;18070;52.474;13.304;2023-12-14T03:49:25;23.33;;;17.40;;
31450;SDS011;18070;52.474;13.304;2023-12-14T03:51:51;29.48;;;17.45;;
31450;SDS011;18070;52.474;13.304;2023-12-14T03:54:17;25.27;;;18.63;;
31450;SDS011;18070;52.474;13.304;2023-12-14T03:56:42;27.23;;;17.38;;
31450;SDS011;18070;52.474;13.304;2023-12-14T03:59:08;30.73;;;18.00;;
31450;SDS011;18070;52.474;13.304;2023-12-14T04:01:34;25.58;;;17.90;;
31450;SDS011;18070;52.474;13.304;2023-12-14T04:04:03;24.05;;;16.63;;
31450;SDS011;18070;52.474;13.304;2023-12-14T04:06:29;24.30;;;16.67;;
31450;SDS011;18070;52.474;13.304;2023-12-14T04:08:55;25.83;;;17.45;;
31450;SDS011;18070;52.474;13.304;2023-12-14T04:11:21;24.15;;;18.58;;
31450;SDS011;18070;52.474;13.304;2023-12-14T04:13:46;23.42;;;17.63;;
31450;SDS011;18070;52.474;13.304;2023-12-14T04:16:15;23.95;;;17.08;;
31450;SDS011;18070;52.474;13.304;2023-12-14T04:18:40;24.98;;;16.10;;
31450;SDS011;18070;52.474;13.304;2023-12-14T04:21:06;23.83;;;17.48;;
31450;SDS011;18070;52.474;13.304;2023-12-14T04:23:32;24.02;;;18.52;;
31450;SDS011;18070;52.474;13.304;2023-12-14T04:25:57;23.75;;;16.75;;
31450;SDS011;18070;52.474;13.304;2023-12-14T04:28:23;23.15;;;17.02;;
31450;SDS011;18070;52.474;13.304;2023-12-14T04:30:48;21.30;;;16.25;;
31450;SDS011;18070;52.474;13.304;2023-12-14T04:33:14;21.45;;;15.18;;
31450;SDS011;18070;52.474;13.304;2023-12-14T04:35:40;18.90;;;15.75;;
31450;SDS011;18070;52.474;13.304;2023-12-14T04:38:06;20.02;;;16.05;;
31450;SDS011;18070;52.474;13.304;2023-12-14T04:40:31;20.48;;;15.23;;
31450;SDS011;18070;52.474;13.304;2023-12-14T04:42:58;18.90;;;15.32;;
31450;SDS011;18070;52.474;13.304;2023-12-14T04:45:24;19.90;;;14.77;;
31450;SDS011;18070;52.474;13.304;2023-12-14T04:47:49;20.88;;;15.88;;
31450;SDS011;18070;52.474;13.304;2023-12-14T04:50:16;20.52;;;15.18;;
31450;SDS011;18070;52.474;13.304;2023-12-14T04:52:42;24.33;;;15.48;;
31450;SDS011;18070;52.474;13.304;2023-12-14T04:55:08;25.55;;;16.58;;
31450;SDS011;18070;52.474;13.304;2023-12-14T04:57:34;21.77;;;16.73;;
31450;SDS011;18070;52.474;13.304;2023-12-14T05:00:00;24.13;;;16.65;;
31450;SDS011;18070;52.474;13.304;2023-12-14T05:02:26;21.17;;;16.20;;
31450;SDS011;18070;52.474;13.304;2023-12-14T05:04:52;20.45;;;16.30;;
31450;SDS011;18070;52.474;13.304;2023-12-14T05:07:17;26.30;;;17.17;;
31450;SDS011;18070;52.474;13.304;2023-12-14T05:09:43;19.90;;;15.73;;
31450;SDS011;18070;52.474;13.304;2023-12-14T05:12:09;24.25;;;16.30;;
31450;SDS011;18070;52.474;13.304;2023-12-14T05:14:35;19.70;;;16.23;;
31450;SDS011;18070;52.474;13.304;2023-12-14T05:17:01;22.15;;;15.57;;
31450;SDS011;18070;52.474;13.304;2023-12-14T05:19:28;23.42;;;16.10;;
31450;SDS011;18070;52.474;13.304;2023-12-14T05:21:54;25.73;;;17.30;;
31450;SDS011;18070;52.474;13.304;2023-12-14T05:24:20;22.83;;;16.55;;
31450;SDS011;18070;52.474;13.304;2023-12-14T05:26:46;23.63;;;16.40;;
31450;SDS011;18070;52.474;13.304;2023-12-14T05:29:12;20.58;;;15.43;;
31450;SDS011;18070;52.474;13.304;2023-12-14T05:31:37;23.17;;;16.50;;
31450;SDS011;18070;52.474;13.304;2023-12-14T05:34:03;20.70;;;15.40;;
31450;SDS011;18070;52.474;13.304;2023-12-14T05:36:30;21.98;;;16.42;;
31450;SDS011;18070;52.474;13.304;2023-12-14T05:38:56;20.60;;;15.95;;
31450;SDS011;18070;52.474;13.304;2023-12-14T05:41:22;21.45;;;16.75;;
31450;SDS011;18070;52.474;13.304;2023-12-14T05:43:48;18.58;;;15.52;;
31450;SDS011;18070;52.474;13.304;2023-12-14T05:46:23;19.85;;;16.15;;
31450;SDS011;18070;52.474;13.304;2023-12-14T05:48:50;21.10;;;15.75;;
31450;SDS011;18070;52.474;13.304;2023-12-14T05:51:28;24.52;;;16.85;;
31450;SDS011;18070;52.474;13.304;2023-12-14T05:53:55;23.08;;;14.90;;
31450;SDS011;18070;52.474;13.304;2023-12-14T05:56:21;23.33;;;16.48;;
31450;SDS011;18070;52.474;13.304;2023-12-14T05:58:46;19.52;;;15.43;;
31450;SDS011;18070;52.474;13.304;2023-12-14T06:01:14;20.20;;;15.68;;
31450;SDS011;18070;52.474;13.304;2023-12-14T06:03:41;18.45;;;15.18;;
31450;SDS011;18070;52.474;13.304;2023-12-14T06:06:07;18.30;;;15.82;;
31450;SDS011;18070;52.474;13.304;2023-12-14T06:08:34;23.60;;;16.45;;
31450;SDS011;18070;52.474;13.304;2023-12-14T06:11:00;17.17;;;14.88;;
31450;SDS011;18070;52.474;13.304;2023-12-14T06:13:25;20.90;;;17.02;;
31450;SDS011;18070;52.474;13.304;2023-12-14T06:15:54;18.52;;;14.23;;
31450;SDS011;18070;52.474;13.304;2023-12-14T06:18:20;18.88;;;14.68;;
31450;SDS011;18070;52.474;13.304;2023-12-14T06:20:46;20.25;;;15.60;;
31450;SDS011;18070;52.474;13.304;2023-12-14T06:23:11;17.58;;;14.70;;
31450;SDS011;18070;52.474;13.304;2023-12-14T06:25:37;18.70;;;14.98;;
31450;SDS011;18070;52.474;13.304;2023-12-14T06:28:04;20.90;;;15.50;;
31450;SDS011;18070;52.474;13.304;2023-12-14T06:30:30;17.13;;;15.27;;
31450;SDS011;18070;52.474;13.304;2023-12-14T06:32:56;19.52;;;14.85;;
31450;SDS011;18070;52.474;13.304;2023-12-14T06:35:21;16.17;;;13.43;;
31450;SDS011;18070;52.474;13.304;2023-12-14T06:37:47;17.42;;;13.57;;
31450;SDS011;18070;52.474;13.304;2023-12-14T06:40:13;18.48;;;14.52;;
31450;SDS011;18070;52.474;13.304;2023-12-14T06:42:39;15.15;;;13.65;;
31450;SDS011;18070;52.474;13.304;2023-12-14T06:45:07;17.38;;;15.52;;
31450;SDS011;18070;52.474;13.304;2023-12-14T06:47:35;16.90;;;13.60;;
31450;SDS011;18070;52.474;13.304;2023-12-14T06:50:00;20.27;;;15.40;;
31450;SDS011;18070;52.474;13.304;2023-12-14T06:52:28;16.73;;;13.57;;
31450;SDS011;18070;52.474;13.304;2023-12-14T06:54:54;15.57;;;13.52;;
31450;SDS011;18070;52.474;13.304;2023-12-14T06:57:19;17.63;;;14.38;;
31450;SDS011;18070;52.474;13.304;2023-12-14T06:59:48;18.85;;;14.52;;
31450;SDS011;18070;52.474;13.304;2023-12-14T07:02:14;17.25;;;14.60;;
31450;SDS011;18070;52.474;13.304;2023-12-14T07:04:39;16.80;;;14.13;;
31450;SDS011;18070;52.474;13.304;2023-12-14T07:07:05;17.08;;;14.48;;
31450;SDS011;18070;52.474;13.304;2023-12-14T07:09:31;18.27;;;14.98;;
31450;SDS011;18070;52.474;13.304;2023-12-14T07:11:56;16.58;;;14.85;;
31450;SDS011;18070;52.474;13.304;2023-12-14T07:14:22;16.60;;;14.57;;
31450;SDS011;18070;52.474;13.304;2023-12-14T07:16:48;19.02;;;15.25;;
31450;SDS011;18070;52.474;13.304;2023-12-14T07:19:14;16.98;;;14.10;;
31450;SDS011;18070;52.474;13.304;2023-12-14T07:21:39;19.67;;;15.05;;
31450;SDS011;18070;52.474;13.304;2023-12-14T07:24:05;17.45;;;15.02;;
31450;SDS011;18070;52.474;13.304;2023-12-14T07:26:31;17.27;;;15.55;;
31450;SDS011;18070;52.474;13.304;2023-12-14T07:28:56;19.90;;;15.52;;
31450;SDS011;18070;52.474;13.304;2023-12-14T07:31:22;19.77;;;13.95;;
31450;SDS011;18070;52.474;13.304;2023-12-14T07:33:47;22.58;;;14.20;;
31450;SDS011;18070;52.474;13.304;2023-12-14T07:36:13;19.20;;;13.52;;
31450;SDS011;18070;52.474;13.304;2023-12-14T07:38:39;18.38;;;13.68;;
31450;SDS011;18070;52.474;13.304;2023-12-14T07:41:04;16.38;;;13.32;;
31450;SDS011;18070;52.474;13.304;2023-12-14T07:43:30;19.73;;;13.88;;
31450;SDS011;18070;52.474;13.304;2023-12-14T07:45:56;21.45;;;13.35;;
31450;SDS011;18070;52.474;13.304;2023-12-14T07:48:23;15.82;;;13.95;;
31450;SDS011;18070;52.474;13.304;2023-12-14T07:50:48;15.80;;;13.73;;
31450;SDS011;18070;52.474;13.304;2023-12-14T07:53:14;18.35;;;13.93;;
31450;SDS011;18070;52.474;13.304;2023-12-14T07:55:39;20.95;;;14.48;;
31450;SDS011;18070;52.474;13.304;2023-12-14T07:58:05;19.83;;;14.40;;
31450;SDS011;18070;52.474;13.304;2023-12-14T08:00:31;21.38;;;15.45;;
31450;SDS011;18070;52.474;13.304;2023-12-14T08:02:57;27.17;;;15.52;;
31450;SDS011;18070;52.474;13.304;2023-12-14T08:05:22;25.73;;;17.10;;
31450;SDS011;18070;52.474;13.304;2023-12-14T08:07:48;23.23;;;16.52;;
31450;SDS011;18070;52.474;13.304;2023-12-14T08:10:17;23.67;;;16.70;;
31450;SDS011;18070;52.474;13.304;2023-12-14T08:12:43;22.67;;;16.80;;
31450;SDS011;18070;52.474;13.304;2023-12-14T08:15:08;25.92;;;17.98;;
31450;SDS011;18070;52.474;13.304;2023-12-14T08:17:34;23.92;;;18.02;;
31450;SDS011;18070;52.474;13.304;2023-12-14T08:20:00;22.45;;;16.48;;
31450;SDS011;18070;52.474;13.304;2023-12-14T08:22:26;22.48;;;17.80;;
31450;SDS011;18070;52.474;13.304;2023-12-14T08:24:51;21.25;;;17.60;;
31450;SDS011;18070;52.474;13.304;2023-12-14T08:27:17;24.38;;;18.88;;
31450;SDS011;18070;52.474;13.304;2023-12-14T08:29:43;22.30;;;18.75;;
31450;SDS011;18070;52.474;13.304;2023-12-14T08:32:10;26.55;;;18.88;;
31450;SDS011;18070;52.474;13.304;2023-12-14T08:34:36;24.17;;;18.10;;
31450;SDS011;18070;52.474;13.304;2023-12-14T08:37:02;23.55;;;18.48;;
31450;SDS011;18070;52.474;13.304;2023-12-14T08:39:28;21.80;;;17.30;;
31450;SDS011;18070;52.474;13.304;2023-12-14T08:41:54;23.17;;;17.48;;
31450;SDS011;18070;52.474;13.304;2023-12-14T08:44:20;26.15;;;19.00;;
31450;SDS011;18070;52.474;13.304;2023-12-14T08:46:46;24.80;;;18.77;;
31450;SDS011;18070;52.474;13.304;2023-12-14T08:49:12;22.85;;;18.38;;
31450;SDS011;18070;52.474;13.304;2023-12-14T08:51:38;27.65;;;20.17;;
31450;SDS011;18070;52.474;13.304;2023-12-14T08:54:05;27.63;;;18.83;;
31450;SDS011;18070;52.474;13.304;2023-12-14T08:56:31;25.45;;;20.63;;
31450;SDS011;18070;52.474;13.304;2023-12-14T08:58:57;28.15;;;18.65;;
31450;SDS011;18070;52.474;13.304;2023-12-14T09:01:24;26.08;;;18.67;;
31450;SDS011;18070;52.474;13.304;2023-12-14T09:03:49;25.05;;;19.17;;
31450;SDS011;18070;52.474;13.304;2023-12-14T09:06:16;25.45;;;18.15;;
31450;SDS011;18070;52.474;13.304;2023-12-14T09:08:46;25.08;;;17.85;;
31450;SDS011;18070;52.474;13.304;2023-12-14T09:11:11;23.05;;;18.27;;
31450;SDS011;18070;52.474;13.304;2023-12-14T09:13:37;23.42;;;17.73;;
31450;SDS011;18070;52.474;13.304;2023-12-14T09:16:03;24.02;;;17.25;;
31450;SDS011;18070;52.474;13.304;2023-12-14T09:18:29;20.45;;;16.35;;
31450;SDS011;18070;52.474;13.304;2023-12-14T09:20:55;25.88;;;17.67;;
31450;SDS011;18070;52.474;13.304;2023-12-14T09:23:21;22.83;;;17.08;;
31450;SDS011;18070;52.474;13.304;2023-12-14T09:25:47;22.38;;;16.77;;
31450;SDS011;18070;52.474;13.304;2023-12-14T09:28:14;24.75;;;17.33;;
31450;SDS011;18070;52.474;13.304;2023-12-14T09:30:40;23.33;;;16.90;;
31450;SDS011;18070;52.474;13.304;2023-12-14T09:33:06;28.85;;;18.95;;
31450;SDS011;18070;52.474;13.304;2023-12-14T09:35:34;25.13;;;17.85;;
31450;SDS011;18070;52.474;13.304;2023-12-14T09:38:01;25.90;;;17.48;;
31450;SDS011;18070;52.474;13.304;2023-12-14T09:40:28;25.67;;;18.30;;
31450;SDS011;18070;52.474;13.304;2023-12-14T09:42:54;24.05;;;18.33;;
31450;SDS011;18070;52.474;13.304;2023-12-14T09:45:21;25.10;;;18.52;;
31450;SDS011;18070;52.474;13.304;2023-12-14T09:47:52;24.13;;;17.42;;
31450;SDS011;18070;52.474;13.304;2023-12-14T09:50:20;28.20;;;18.27;;
31450;SDS011;18070;52.474;13.304;2023-12-14T09:52:46;26.35;;;19.63;;
31450;SDS011;18070;52.474;13.304;2023-12-14T09:55:14;25.33;;;18.63;;
31450;SDS011;18070;52.474;13.304;2023-12-14T09:57:40;26.95;;;18.42;;
31450;SDS011;18070;52.474;13.304;2023-12-14T10:00:06;26.38;;;19.70;;
31450;SDS011;18070;52.474;13.304;2023-12-14T10:02:36;32.88;;;20.10;;
31450;SDS011;18070;52.474;13.304;2023-12-14T10:05:01;29.13;;;19.30;;
31450;SDS011;18070;52.474;13.304;2023-12-14T10:07:27;26.88;;;18.10;;
31450;SDS011;18070;52.474;13.304;2023-12-14T10:09:53;26.73;;;18.65;;
31450;SDS011;18070;52.474;13.304;2023-12-14T10:12:20;34.90;;;19.65;;
31450;SDS011;18070;52.474;13.304;2023-12-14T10:14:48;25.17;;;18.65;;
31450;SDS011;18070;52.474;13.304;2023-12-14T10:17:24;23.55;;;16.52;;
31450;SDS011;18070;52.474;13.304;2023-12-14T10:19:56;24.27;;;17.05;;
31450;SDS011;18070;52.474;13.304;2023-12-14T10:22:22;24.75;;;16.08;;
31450;SDS011;18070;52.474;13.304;2023-12-14T10:24:53;25.17;;;16.90;;
31450;SDS011;18070;52.474;13.304;2023-12-14T10:27:18;23.98;;;17.00;;
31450;SDS011;18070;52.474;13.304;2023-12-14T10:29:45;25.20;;;17.27;;
31450;SDS011;18070;52.474;13.304;2023-12-14T10:32:11;19.52;;;14.90;;
31450;SDS011;18070;52.474;13.304;2023-12-14T10:34:37;21.38;;;14.88;;
31450;SDS011;18070;52.474;13.304;2023-12-14T10:37:04;21.90;;;14.82;;
31450;SDS011;18070;52.474;13.304;2023-12-14T10:39:33;19.88;;;15.15;;
31450;SDS011;18070;52.474;13.304;2023-12-14T10:42:02;24.73;;;15.82;;
31450;SDS011;18070;52.474;13.304;2023-12-14T10:44:29;21.45;;;16.52;;
31450;SDS011;18070;52.474;13.304;2023-12-14T10:46:59;19.88;;;14.55;;
31450;SDS011;18070;52.474;13.304;2023-12-14T10:49:25;26.38;;;17.95;;
31450;SDS011;18070;52.474;13.304;2023-12-14T10:51:52;25.73;;;18.65;;
31450;SDS011;18070;52.474;13.304;2023-12-14T10:54:20;23.15;;;17.50;;
31450;SDS011;18070;52.474;13.304;2023-12-14T10:56:48;24.73;;;17.42;;
31450;SDS011;18070;52.474;13.304;2023-12-14T10:59:16;21.80;;;16.48;;
31450;SDS011;18070;52.474;13.304;2023-12-14T11:01:42;24.30;;;17.75;;
31450;SDS011;18070;52.474;13.304;2023-12-14T11:04:08;26.80;;;18.63;;
31450;SDS011;18070;52.474;13.304;2023-12-14T11:06:38;23.95;;;18.67;;
31450;SDS011;18070;52.474;13.304;2023-12-14T11:09:05;24.50;;;18.42;;
31450;SDS011;18070;52.474;13.304;2023-12-14T11:11:42;26.13;;;19.60;;
31450;SDS011;18070;52.474;13.304;2023-12-14T11:14:10;27.45;;;18.35;;
31450;SDS011;18070;52.474;13.304;2023-12-14T11:16:43;24.05;;;17.88;;
31450;SDS011;18070;52.474;13.304;2023-12-14T11:19:33;28.98;;;18.40;;
31450;SDS011;18070;52.474;13.304;2023-12-14T11:24:34;26.63;;;19.02;;
31450;SDS011;18070;52.474;13.304;2023-12-14T11:27:04;29.52;;;20.25;;
31450;SDS011;18070;52.474;13.304;2023-12-14T11:29:30;30.58;;;19.95;;
31450;SDS011;18070;52.474;13.304;2023-12-14T11:32:00;30.27;;;20.17;;
31450;SDS011;18070;52.474;13.304;2023-12-14T11:34:26;30.58;;;18.73;;
31450;SDS011;18070;52.474;13.304;2023-12-14T11:36:53;32.28;;;20.90;;
31450;SDS011;18070;52.474;13.304;2023-12-14T11:39:20;32.20;;;19.40;;
31450;SDS011;18070;52.474;13.304;2023-12-14T11:42:01;31.63;;;19.00;;
31450;SDS011;18070;52.474;13.304;2023-12-14T11:44:28;29.40;;;19.77;;
31450;SDS011;18070;52.474;13.304;2023-12-14T11:46:55;29.88;;;20.05;;
31450;SDS011;18070;52.474;13.304;2023-12-14T11:49:23;29.73;;;19.90;;
31450;SDS011;18070;52.474;13.304;2023-12-14T11:52:01;28.13;;;19.85;;
31450;SDS011;18070;52.474;13.304;2023-12-14T11:54:29;31.52;;;19.50;;
31450;SDS011;18070;52.474;13.304;2023-12-14T11:56:55;30.33;;;21.50;;
31450;SDS011;18070;52.474;13.304;2023-12-14T11:59:20;30.42;;;20.30;;
31450;SDS011;18070;52.474;13.304;2023-12-14T12:01:58;29.70;;;19.27;;
31450;SDS011;18070;52.474;13.304;2023-12-14T12:04:25;28.75;;;19.50;;
31450;SDS011;18070;52.474;13.304;2023-12-14T12:12:09;28.15;;;19.73;;
31450;SDS011;18070;52.474;13.304;2023-12-14T12:14:36;24.33;;;17.95;;
31450;SDS011;18070;52.474;13.304;2023-12-14T12:17:05;31.35;;;19.48;;
31450;SDS011;18070;52.474;13.304;2023-12-14T12:19:34;26.08;;;17.33;;
31450;SDS011;18070;52.474;13.304;2023-12-14T12:22:01;28.42;;;18.33;;
31450;SDS011;18070;52.474;13.304;2023-12-14T12:24:27;30.58;;;19.60;;
31450;SDS011;18070;52.474;13.304;2023-12-14T12:26:53;28.00;;;17.73;;
31450;SDS011;18070;52.474;13.304;2023-12-14T12:29:20;26.13;;;17.40;;
31450;SDS011;18070;52.474;13.304;2023-12-14T12:31:46;22.85;;;16.80;;
31450;SDS011;18070;52.474;13.304;2023-12-14T12:34:11;27.05;;;18.23;;
31450;SDS011;18070;52.474;13.304;2023-12-14T12:36:37;25.88;;;17.83;;
31450;SDS011;18070;52.474;13.304;2023-12-14T12:39:03;27.45;;;17.52;;
31450;SDS011;18070;52.474;13.304;2023-12-14T12:41:32;27.95;;;19.17;;
31450;SDS011;18070;52.474;13.304;2023-12-14T12:43:58;28.95;;;19.52;;
31450;SDS011;18070;52.474;13.304;2023-12-14T12:46:30;27.50;;;17.90;;
31450;SDS011;18070;52.474;13.304;2023-12-14T12:48:57;23.30;;;16.50;;
31450;SDS011;18070;52.474;13.304;2023-12-14T12:51:22;25.05;;;17.63;;
31450;SDS011;18070;52.474;13.304;2023-12-14T12:53:48;27.20;;;16.55;;
31450;SDS011;18070;52.474;13.304;2023-12-14T12:56:13;24.50;;;18.73;;
31450;SDS011;18070;52.474;13.304;2023-12-14T12:58:39;25.55;;;16.25;;
31450;SDS011;18070;52.474;13.304;2023-12-14T13:01:05;23.95;;;17.42;;
31450;SDS011;18070;52.474;13.304;2023-12-14T13:03:30;22.23;;;16.35;;
31450;SDS011;18070;52.474;13.304;2023-12-14T13:05:56;25.33;;;17.92;;
31450;SDS011;18070;52.474;13.304;2023-12-14T13:08:22;28.42;;;19.48;;
31450;SDS011;18070;52.474;13.304;2023-12-14T13:10:48;26.30;;;19.45;;
31450;SDS011;18070;52.474;13.304;2023-12-14T13:13:16;28.80;;;18.88;;
31450;SDS011;18070;52.474;13.304;2023-12-14T13:15:42;26.52;;;19.40;;
31450;SDS011;18070;52.474;13.304;2023-12-14T13:18:08;28.98;;;18.60;;
31450;SDS011;18070;52.474;13.304;2023-12-14T13:20:34;33.55;;;22.05;;
31450;SDS011;18070;52.474;13.304;2023-12-14T13:23:00;29.38;;;19.77;;
31450;SDS011;18070;52.474;13.304;2023-12-14T13:25:27;24.00;;;18.65;;
31450;SDS011;18070;52.474;13.304;2023-12-14T13:27:53;15.73;;;13.38;;
31450;SDS011;18070;52.474;13.304;2023-12-14T13:30:19;16.55;;;13.10;;
31450;SDS011;18070;52.474;13.304;2023-12-14T13:32:47;17.02;;;12.43;;
31450;SDS011;18070;52.474;13.304;2023-12-14T13:35:13;25.98;;;14.32;;
31450;SDS011;18070;52.474;13.304;2023-12-14T13:37:40;26.92;;;14.98;;
31450;SDS011;18070;52.474;13.304;2023-12-14T13:40:06;22.42;;;15.93;;
31450;SDS011;18070;52.474;13.304;2023-12-14T13:42:32;24.40;;;16.65;;
31450;SDS011;18070;52.474;13.304;2023-12-14T13:44:58;25.98;;;16.25;;
31450;SDS011;18070;52.474;13.304;2023-12-14T13:47:23;24.83;;;15.52;;
31450;SDS011;18070;52.474;13.304;2023-12-14T13:49:49;24.23;;;16.33;;
31450;SDS011;18070;52.474;13.304;2023-12-14T13:52:14;25.13;;;17.60;;
31450;SDS011;18070;52.474;13.304;2023-12-14T13:54:40;39.17;;;18.58;;
31450;SDS011;18070;52.474;13.304;2023-12-14T13:57:05;30.65;;;18.17;;
31450;SDS011;18070;52.474;13.304;2023-12-14T13:59:31;30.60;;;18.73;;
31450;SDS011;18070;52.474;13.304;2023-12-14T14:01:58;25.52;;;16.30;;
31450;SDS011;18070;52.474;13.304;2023-12-14T14:04:23;22.73;;;16.38;;
31450;SDS011;18070;52.474;13.304;2023-12-14T14:06:49;27.70;;;17.25;;
31450;SDS011;18070;52.474;13.304;2023-12-14T14:09:15;27.63;;;16.98;;
31450;SDS011;18070;52.474;13.304;2023-12-14T14:11:40;26.17;;;17.33;;